Terminal Aerodrome Forecast
Issued by NWS

Home | Current Version | Previous Version | Text Only | Print | Product List | Glossary On
Versions: 1 2 3 4 5 6 7 8 9 10 11 12 13
000
FTUS43 KICT 230500
TAFHUT
TAF
KHUT 230520Z 2306/2406 14007KT P6SM BKN250
     FM231500 17014KT P6SM OVC120
     FM231800 17019G27KT P6SM SCT060 OVC120
     FM240100 16014KT P6SM SCT100=

USA.gov is the U.S. government's official web portal to all federal, state and local government web resources and services.